sensor_id;sensor_type;location;lat;lon;timestamp;P1;durP1;ratioP1;P2;durP2;ratioP2
55589;SDS011;41452;42.780;23.116;2022-08-11T00:00:07;7.68;;;3.83;;
55589;SDS011;41452;42.780;23.116;2022-08-11T00:02:47;9.13;;;4.15;;
55589;SDS011;41452;42.780;23.116;2022-08-11T00:05:19;4.38;;;3.38;;
55589;SDS011;41452;42.780;23.116;2022-08-11T00:07:47;6.95;;;4.40;;
55589;SDS011;41452;42.780;23.116;2022-08-11T00:10:14;6.28;;;4.10;;
55589;SDS011;41452;42.780;23.116;2022-08-11T00:12:42;5.45;;;3.90;;
55589;SDS011;41452;42.780;23.116;2022-08-11T00:15:14;5.57;;;4.20;;
55589;SDS011;41452;42.780;23.116;2022-08-11T00:17:40;7.18;;;3.97;;
55589;SDS011;41452;42.780;23.116;2022-08-11T00:20:06;6.43;;;4.03;;
55589;SDS011;41452;42.780;23.116;2022-08-11T00:22:35;5.85;;;4.30;;
55589;SDS011;41452;42.780;23.116;2022-08-11T00:25:07;8.80;;;4.57;;
55589;SDS011;41452;42.780;23.116;2022-08-11T00:27:35;5.70;;;3.92;;
55589;SDS011;41452;42.780;23.116;2022-08-11T00:30:06;8.77;;;4.18;;
55589;SDS011;41452;42.780;23.116;2022-08-11T00:32:33;6.20;;;4.15;;
55589;SDS011;41452;42.780;23.116;2022-08-11T00:35:01;6.85;;;4.22;;
55589;SDS011;41452;42.780;23.116;2022-08-11T00:37:27;6.80;;;4.10;;
55589;SDS011;41452;42.780;23.116;2022-08-11T00:39:54;9.65;;;4.78;;
55589;SDS011;41452;42.780;23.116;2022-08-11T00:56:20;7.05;;;4.22;;
55589;SDS011;41452;42.780;23.116;2022-08-11T01:02:16;6.57;;;4.30;;
55589;SDS011;41452;42.780;23.116;2022-08-11T01:34:14;5.93;;;4.43;;
55589;SDS011;41452;42.780;23.116;2022-08-11T01:42:48;6.18;;;3.92;;
55589;SDS011;41452;42.780;23.116;2022-08-11T01:45:56;8.55;;;4.20;;
55589;SDS011;41452;42.780;23.116;2022-08-11T01:48:34;9.73;;;5.20;;
55589;SDS011;41452;42.780;23.116;2022-08-11T02:13:19;6.97;;;4.97;;
55589;SDS011;41452;42.780;23.116;2022-08-11T02:15:49;7.60;;;4.85;;
55589;SDS011;41452;42.780;23.116;2022-08-11T02:21:21;8.02;;;4.25;;
55589;SDS011;41452;42.780;23.116;2022-08-11T02:24:21;6.18;;;4.50;;
55589;SDS011;41452;42.780;23.116;2022-08-11T02:26:59;6.88;;;4.93;;
55589;SDS011;41452;42.780;23.116;2022-08-11T02:32:31;6.60;;;5.22;;
55589;SDS011;41452;42.780;23.116;2022-08-11T02:35:27;9.30;;;5.13;;
55589;SDS011;41452;42.780;23.116;2022-08-11T02:46:25;7.03;;;4.38;;
55589;SDS011;41452;42.780;23.116;2022-08-11T02:54:29;7.68;;;5.50;;
55589;SDS011;41452;42.780;23.116;2022-08-11T02:57:26;10.68;;;5.45;;
55589;SDS011;41452;42.780;23.116;2022-08-11T03:05:24;7.70;;;4.55;;
55589;SDS011;41452;42.780;23.116;2022-08-11T03:13:33;9.35;;;5.38;;
55589;SDS011;41452;42.780;23.116;2022-08-11T03:16:31;9.57;;;5.10;;
55589;SDS011;41452;42.780;23.116;2022-08-11T03:21:52;8.23;;;5.40;;
55589;SDS011;41452;42.780;23.116;2022-08-11T03:30:05;6.75;;;4.93;;
55589;SDS011;41452;42.780;23.116;2022-08-11T03:42:05;7.82;;;5.15;;
55589;SDS011;41452;42.780;23.116;2022-08-11T03:55:30;7.15;;;5.32;;
55589;SDS011;41452;42.780;23.116;2022-08-11T04:15:18;6.65;;;5.10;;
55589;SDS011;41452;42.780;23.116;2022-08-11T04:18:17;11.13;;;5.90;;
55589;SDS011;41452;42.780;23.116;2022-08-11T04:21:03;7.28;;;5.38;;
55589;SDS011;41452;42.780;23.116;2022-08-11T04:29:14;13.98;;;6.05;;
55589;SDS011;41452;42.780;23.116;2022-08-11T04:57:40;11.98;;;7.53;;
55589;SDS011;41452;42.780;23.116;2022-08-11T05:07:06;8.75;;;7.47;;
55589;SDS011;41452;42.780;23.116;2022-08-11T05:15:16;12.05;;;6.88;;
55589;SDS011;41452;42.780;23.116;2022-08-11T05:18:17;11.88;;;7.35;;
55589;SDS011;41452;42.780;23.116;2022-08-11T05:21:09;9.65;;;6.60;;
55589;SDS011;41452;42.780;23.116;2022-08-11T05:24:06;11.93;;;7.50;;
55589;SDS011;41452;42.780;23.116;2022-08-11T05:27:02;11.30;;;6.47;;
55589;SDS011;41452;42.780;23.116;2022-08-11T05:35:47;8.45;;;6.72;;
55589;SDS011;41452;42.780;23.116;2022-08-11T05:38:17;12.07;;;7.15;;
55589;SDS011;41452;42.780;23.116;2022-08-11T05:41:06;9.30;;;6.35;;
55589;SDS011;41452;42.780;23.116;2022-08-11T05:43:53;7.68;;;6.57;;
55589;SDS011;41452;42.780;23.116;2022-08-11T05:46:41;8.88;;;6.75;;
55589;SDS011;41452;42.780;23.116;2022-08-11T05:52:15;9.65;;;6.60;;
55589;SDS011;41452;42.780;23.116;2022-08-11T05:55:03;9.35;;;6.30;;
55589;SDS011;41452;42.780;23.116;2022-08-11T05:57:48;9.70;;;6.80;;
55589;SDS011;41452;42.780;23.116;2022-08-11T06:00:19;9.95;;;6.80;;
55589;SDS011;41452;42.780;23.116;2022-08-11T06:02:48;11.38;;;6.82;;
55589;SDS011;41452;42.780;23.116;2022-08-11T06:05:19;8.25;;;6.38;;
55589;SDS011;41452;42.780;23.116;2022-08-11T06:07:45;9.82;;;6.53;;
55589;SDS011;41452;42.780;23.116;2022-08-11T06:10:12;10.43;;;7.18;;
55589;SDS011;41452;42.780;23.116;2022-08-11T06:12:38;10.45;;;6.20;;
55589;SDS011;41452;42.780;23.116;2022-08-11T06:15:07;6.78;;;5.63;;
55589;SDS011;41452;42.780;23.116;2022-08-11T06:17:44;10.65;;;6.30;;
55589;SDS011;41452;42.780;23.116;2022-08-11T06:20:11;9.93;;;6.32;;
55589;SDS011;41452;42.780;23.116;2022-08-11T06:22:38;8.82;;;6.63;;
55589;SDS011;41452;42.780;23.116;2022-08-11T06:25:07;9.23;;;6.72;;
55589;SDS011;41452;42.780;23.116;2022-08-11T06:27:34;7.38;;;6.10;;
55589;SDS011;41452;42.780;23.116;2022-08-11T06:30:03;10.30;;;6.15;;
55589;SDS011;41452;42.780;23.116;2022-08-11T06:32:43;9.80;;;6.93;;
55589;SDS011;41452;42.780;23.116;2022-08-11T06:35:17;14.50;;;7.18;;
55589;SDS011;41452;42.780;23.116;2022-08-11T06:40:41;9.98;;;7.50;;
55589;SDS011;41452;42.780;23.116;2022-08-11T06:46:41;9.38;;;6.97;;
55589;SDS011;41452;42.780;23.116;2022-08-11T06:49:10;9.30;;;6.90;;
55589;SDS011;41452;42.780;23.116;2022-08-11T06:51:57;10.48;;;6.82;;
55589;SDS011;41452;42.780;23.116;2022-08-11T06:54:26;11.48;;;7.68;;
55589;SDS011;41452;42.780;23.116;2022-08-11T06:56:55;11.90;;;7.40;;
55589;SDS011;41452;42.780;23.116;2022-08-11T06:59:41;11.65;;;6.97;;
55589;SDS011;41452;42.780;23.116;2022-08-11T07:02:30;11.60;;;7.53;;
55589;SDS011;41452;42.780;23.116;2022-08-11T07:05:00;11.80;;;7.60;;
55589;SDS011;41452;42.780;23.116;2022-08-11T07:10:32;10.70;;;7.88;;
55589;SDS011;41452;42.780;23.116;2022-08-11T07:23:30;9.70;;;6.25;;
55589;SDS011;41452;42.780;23.116;2022-08-11T07:26:19;9.85;;;6.88;;
55589;SDS011;41452;42.780;23.116;2022-08-11T07:29:06;9.70;;;6.68;;
55589;SDS011;41452;42.780;23.116;2022-08-11T07:31:42;10.15;;;6.70;;
55589;SDS011;41452;42.780;23.116;2022-08-11T07:36:48;9.35;;;7.13;;
55589;SDS011;41452;42.780;23.116;2022-08-11T07:39:20;12.70;;;6.80;;
55589;SDS011;41452;42.780;23.116;2022-08-11T07:41:49;9.77;;;6.57;;
55589;SDS011;41452;42.780;23.116;2022-08-11T07:44:16;10.00;;;7.47;;
55589;SDS011;41452;42.780;23.116;2022-08-11T07:46:43;11.85;;;7.28;;
55589;SDS011;41452;42.780;23.116;2022-08-11T07:49:30;10.05;;;7.93;;
55589;SDS011;41452;42.780;23.116;2022-08-11T07:52:18;13.52;;;8.02;;
55589;SDS011;41452;42.780;23.116;2022-08-11T07:54:54;9.65;;;7.35;;
55589;SDS011;41452;42.780;23.116;2022-08-11T07:57:29;13.15;;;7.78;;
55589;SDS011;41452;42.780;23.116;2022-08-11T08:00:14;11.10;;;8.35;;
55589;SDS011;41452;42.780;23.116;2022-08-11T08:03:00;10.35;;;7.72;;
55589;SDS011;41452;42.780;23.116;2022-08-11T08:05:45;10.77;;;7.20;;
55589;SDS011;41452;42.780;23.116;2022-08-11T08:08:30;9.73;;;7.32;;
55589;SDS011;41452;42.780;23.116;2022-08-11T08:11:15;11.38;;;7.75;;
55589;SDS011;41452;42.780;23.116;2022-08-11T08:14:02;11.70;;;6.97;;
55589;SDS011;41452;42.780;23.116;2022-08-11T08:16:46;11.65;;;6.68;;
55589;SDS011;41452;42.780;23.116;2022-08-11T08:19:31;8.82;;;6.10;;
55589;SDS011;41452;42.780;23.116;2022-08-11T08:21:57;8.50;;;5.93;;
55589;SDS011;41452;42.780;23.116;2022-08-11T08:24:23;10.18;;;6.32;;
55589;SDS011;41452;42.780;23.116;2022-08-11T08:26:49;10.02;;;6.53;;
55589;SDS011;41452;42.780;23.116;2022-08-11T08:29:34;8.23;;;6.45;;
55589;SDS011;41452;42.780;23.116;2022-08-11T08:32:20;8.48;;;5.40;;
55589;SDS011;41452;42.780;23.116;2022-08-11T08:34:49;9.88;;;6.35;;
55589;SDS011;41452;42.780;23.116;2022-08-11T08:37:17;12.00;;;5.85;;
55589;SDS011;41452;42.780;23.116;2022-08-11T08:39:44;12.43;;;7.10;;
55589;SDS011;41452;42.780;23.116;2022-08-11T08:42:12;9.20;;;5.75;;
55589;SDS011;41452;42.780;23.116;2022-08-11T08:44:45;12.50;;;7.10;;
55589;SDS011;41452;42.780;23.116;2022-08-11T08:47:17;10.10;;;6.55;;
55589;SDS011;41452;42.780;23.116;2022-08-11T08:50:02;10.52;;;7.13;;
55589;SDS011;41452;42.780;23.116;2022-08-11T08:52:33;10.27;;;6.88;;
55589;SDS011;41452;42.780;23.116;2022-08-11T08:55:04;9.95;;;6.72;;
55589;SDS011;41452;42.780;23.116;2022-08-11T08:57:35;11.02;;;6.50;;
55589;SDS011;41452;42.780;23.116;2022-08-11T09:00:03;11.02;;;7.45;;
55589;SDS011;41452;42.780;23.116;2022-08-11T09:02:30;11.27;;;7.72;;
55589;SDS011;41452;42.780;23.116;2022-08-11T09:04:56;11.25;;;7.47;;
55589;SDS011;41452;42.780;23.116;2022-08-11T09:07:23;9.77;;;6.80;;
55589;SDS011;41452;42.780;23.116;2022-08-11T09:09:53;10.18;;;6.07;;
55589;SDS011;41452;42.780;23.116;2022-08-11T09:12:24;10.98;;;7.18;;
55589;SDS011;41452;42.780;23.116;2022-08-11T09:14:52;11.02;;;7.65;;
55589;SDS011;41452;42.780;23.116;2022-08-11T09:17:25;11.63;;;8.15;;
55589;SDS011;41452;42.780;23.116;2022-08-11T09:19:59;13.07;;;6.72;;
55589;SDS011;41452;42.780;23.116;2022-08-11T09:22:37;10.75;;;7.45;;
55589;SDS011;41452;42.780;23.116;2022-08-11T09:25:24;12.80;;;7.38;;
55589;SDS011;41452;42.780;23.116;2022-08-11T09:28:12;13.23;;;8.25;;
55589;SDS011;41452;42.780;23.116;2022-08-11T09:30:40;11.25;;;6.93;;
55589;SDS011;41452;42.780;23.116;2022-08-11T09:33:08;7.75;;;5.78;;
55589;SDS011;41452;42.780;23.116;2022-08-11T09:35:35;8.07;;;5.68;;
55589;SDS011;41452;42.780;23.116;2022-08-11T09:38:03;8.10;;;6.50;;
55589;SDS011;41452;42.780;23.116;2022-08-11T09:40:48;7.50;;;5.82;;
55589;SDS011;41452;42.780;23.116;2022-08-11T09:43:16;7.47;;;5.53;;
55589;SDS011;41452;42.780;23.116;2022-08-11T09:46:01;11.40;;;5.45;;
55589;SDS011;41452;42.780;23.116;2022-08-11T09:48:29;8.45;;;5.65;;
55589;SDS011;41452;42.780;23.116;2022-08-11T09:50:59;8.07;;;5.75;;
55589;SDS011;41452;42.780;23.116;2022-08-11T09:53:26;10.25;;;6.32;;
55589;SDS011;41452;42.780;23.116;2022-08-11T09:56:04;9.32;;;5.38;;
55589;SDS011;41452;42.780;23.116;2022-08-11T09:58:52;7.50;;;5.70;;
55589;SDS011;41452;42.780;23.116;2022-08-11T10:01:19;10.90;;;5.65;;
55589;SDS011;41452;42.780;23.116;2022-08-11T10:03:54;10.37;;;5.23;;
55589;SDS011;41452;42.780;23.116;2022-08-11T10:06:25;8.85;;;4.95;;
55589;SDS011;41452;42.780;23.116;2022-08-11T10:09:12;5.38;;;4.38;;
55589;SDS011;41452;42.780;23.116;2022-08-11T10:11:42;7.88;;;4.78;;
55589;SDS011;41452;42.780;23.116;2022-08-11T10:14:08;12.57;;;5.30;;
55589;SDS011;41452;42.780;23.116;2022-08-11T10:16:53;6.68;;;4.97;;
55589;SDS011;41452;42.780;23.116;2022-08-11T10:19:20;5.70;;;4.65;;
55589;SDS011;41452;42.780;23.116;2022-08-11T10:21:49;4.75;;;3.63;;
55589;SDS011;41452;42.780;23.116;2022-08-11T10:24:36;8.18;;;3.90;;
55589;SDS011;41452;42.780;23.116;2022-08-11T10:27:21;6.75;;;3.35;;
55589;SDS011;41452;42.780;23.116;2022-08-11T10:29:47;7.80;;;3.95;;
55589;SDS011;41452;42.780;23.116;2022-08-11T10:32:33;5.78;;;3.55;;
55589;SDS011;41452;42.780;23.116;2022-08-11T10:35:19;6.68;;;3.67;;
55589;SDS011;41452;42.780;23.116;2022-08-11T10:37:46;4.60;;;3.38;;
55589;SDS011;41452;42.780;23.116;2022-08-11T10:40:13;5.32;;;3.72;;
55589;SDS011;41452;42.780;23.116;2022-08-11T10:42:41;7.53;;;3.47;;
55589;SDS011;41452;42.780;23.116;2022-08-11T10:45:27;5.47;;;3.42;;
55589;SDS011;41452;42.780;23.116;2022-08-11T10:48:13;6.35;;;3.17;;
55589;SDS011;41452;42.780;23.116;2022-08-11T10:50:39;11.23;;;3.58;;
55589;SDS011;41452;42.780;23.116;2022-08-11T10:53:30;4.90;;;3.13;;
55589;SDS011;41452;42.780;23.116;2022-08-11T10:56:15;5.05;;;3.50;;
55589;SDS011;41452;42.780;23.116;2022-08-11T10:59:01;6.63;;;3.05;;
55589;SDS011;41452;42.780;23.116;2022-08-11T11:01:31;3.67;;;2.60;;
55589;SDS011;41452;42.780;23.116;2022-08-11T11:07:04;4.10;;;2.58;;
55589;SDS011;41452;42.780;23.116;2022-08-11T11:09:43;6.03;;;2.30;;
55589;SDS011;41452;42.780;23.116;2022-08-11T11:12:15;5.43;;;2.90;;
55589;SDS011;41452;42.780;23.116;2022-08-11T11:15:06;6.72;;;2.90;;
55589;SDS011;41452;42.780;23.116;2022-08-11T11:18:05;4.18;;;2.75;;
55589;SDS011;41452;42.780;23.116;2022-08-11T11:34:33;3.72;;;2.17;;
55589;SDS011;41452;42.780;23.116;2022-08-11T11:37:09;7.70;;;2.60;;
55589;SDS011;41452;42.780;23.116;2022-08-11T11:39:37;3.17;;;1.60;;
55589;SDS011;41452;42.780;23.116;2022-08-11T11:42:07;4.75;;;1.65;;
55589;SDS011;41452;42.780;23.116;2022-08-11T11:44:35;6.78;;;2.15;;
55589;SDS011;41452;42.780;23.116;2022-08-11T11:47:02;4.25;;;2.45;;
55589;SDS011;41452;42.780;23.116;2022-08-11T11:49:30;4.15;;;2.13;;
55589;SDS011;41452;42.780;23.116;2022-08-11T11:51:56;3.80;;;2.00;;
55589;SDS011;41452;42.780;23.116;2022-08-11T11:54:25;6.53;;;2.20;;
55589;SDS011;41452;42.780;23.116;2022-08-11T11:56:52;4.20;;;2.05;;
55589;SDS011;41452;42.780;23.116;2022-08-11T11:59:20;4.13;;;1.80;;
55589;SDS011;41452;42.780;23.116;2022-08-11T12:02:08;4.85;;;2.10;;
55589;SDS011;41452;42.780;23.116;2022-08-11T12:04:36;4.78;;;2.40;;
55589;SDS011;41452;42.780;23.116;2022-08-11T12:07:05;4.13;;;1.90;;
55589;SDS011;41452;42.780;23.116;2022-08-11T12:09:50;3.95;;;2.40;;
55589;SDS011;41452;42.780;23.116;2022-08-11T12:12:16;3.40;;;2.20;;
55589;SDS011;41452;42.780;23.116;2022-08-11T12:15:00;5.05;;;1.90;;
55589;SDS011;41452;42.780;23.116;2022-08-11T12:17:26;3.05;;;2.00;;
55589;SDS011;41452;42.780;23.116;2022-08-11T12:19:52;3.72;;;2.15;;
55589;SDS011;41452;42.780;23.116;2022-08-11T12:22:18;3.53;;;2.63;;
55589;SDS011;41452;42.780;23.116;2022-08-11T12:28:24;4.68;;;2.30;;
55589;SDS011;41452;42.780;23.116;2022-08-11T12:30:50;3.15;;;2.28;;
55589;SDS011;41452;42.780;23.116;2022-08-11T12:33:17;6.50;;;2.55;;
55589;SDS011;41452;42.780;23.116;2022-08-11T12:35:43;4.50;;;2.10;;
55589;SDS011;41452;42.780;23.116;2022-08-11T12:38:11;8.70;;;2.50;;
55589;SDS011;41452;42.780;23.116;2022-08-11T12:40:40;3.85;;;2.45;;
55589;SDS011;41452;42.780;23.116;2022-08-11T12:43:26;5.18;;;3.17;;
55589;SDS011;41452;42.780;23.116;2022-08-11T12:46:15;7.70;;;2.90;;
55589;SDS011;41452;42.780;23.116;2022-08-11T12:48:44;5.68;;;3.65;;
55589;SDS011;41452;42.780;23.116;2022-08-11T12:51:33;3.95;;;3.28;;
55589;SDS011;41452;42.780;23.116;2022-08-11T12:54:24;5.63;;;3.33;;
55589;SDS011;41452;42.780;23.116;2022-08-11T12:57:01;6.40;;;3.22;;
55589;SDS011;41452;42.780;23.116;2022-08-11T12:59:49;6.10;;;3.30;;
55589;SDS011;41452;42.780;23.116;2022-08-11T13:02:34;4.10;;;3.35;;
55589;SDS011;41452;42.780;23.116;2022-08-11T13:05:19;6.53;;;3.60;;
55589;SDS011;41452;42.780;23.116;2022-08-11T13:07:46;8.43;;;3.28;;
55589;SDS011;41452;42.780;23.116;2022-08-11T13:10:13;3.67;;;2.92;;
55589;SDS011;41452;42.780;23.116;2022-08-11T13:13:04;4.57;;;3.05;;
55589;SDS011;41452;42.780;23.116;2022-08-11T13:15:32;4.95;;;3.00;;
55589;SDS011;41452;42.780;23.116;2022-08-11T13:31:26;3.40;;;2.70;;
55589;SDS011;41452;42.780;23.116;2022-08-11T13:33:52;3.75;;;2.80;;
55589;SDS011;41452;42.780;23.116;2022-08-11T13:36:18;5.15;;;3.13;;
55589;SDS011;41452;42.780;23.116;2022-08-11T13:38:46;6.22;;;3.13;;
55589;SDS011;41452;42.780;23.116;2022-08-11T13:41:12;4.55;;;3.05;;
55589;SDS011;41452;42.780;23.116;2022-08-11T13:43:57;5.97;;;3.33;;
55589;SDS011;41452;42.780;23.116;2022-08-11T13:46:23;6.22;;;2.65;;
55589;SDS011;41452;42.780;23.116;2022-08-11T13:48:53;4.93;;;2.65;;
55589;SDS011;41452;42.780;23.116;2022-08-11T13:51:21;3.75;;;2.90;;
55589;SDS011;41452;42.780;23.116;2022-08-11T13:53:55;4.03;;;2.85;;
55589;SDS011;41452;42.780;23.116;2022-08-11T13:56:23;4.05;;;3.17;;
55589;SDS011;41452;42.780;23.116;2022-08-11T13:58:50;3.40;;;2.58;;
55589;SDS011;41452;42.780;23.116;2022-08-11T14:01:17;7.10;;;3.10;;
55589;SDS011;41452;42.780;23.116;2022-08-11T14:03:44;3.17;;;2.45;;
55589;SDS011;41452;42.780;23.116;2022-08-11T14:06:11;4.55;;;2.88;;
55589;SDS011;41452;42.780;23.116;2022-08-11T14:08:39;4.80;;;3.03;;
55589;SDS011;41452;42.780;23.116;2022-08-11T14:11:06;4.80;;;3.08;;
55589;SDS011;41452;42.780;23.116;2022-08-11T14:13:51;7.22;;;3.03;;
55589;SDS011;41452;42.780;23.116;2022-08-11T14:16:19;6.03;;;3.13;;
55589;SDS011;41452;42.780;23.116;2022-08-11T14:18:51;5.32;;;3.20;;
55589;SDS011;41452;42.780;23.116;2022-08-11T14:21:20;4.60;;;2.95;;
55589;SDS011;41452;42.780;23.116;2022-08-11T14:24:06;4.63;;;2.83;;
55589;SDS011;41452;42.780;23.116;2022-08-11T14:26:35;4.90;;;2.88;;
55589;SDS011;41452;42.780;23.116;2022-08-11T14:29:07;4.15;;;2.78;;
55589;SDS011;41452;42.780;23.116;2022-08-11T14:31:36;4.85;;;3.40;;
55589;SDS011;41452;42.780;23.116;2022-08-11T14:34:03;4.93;;;2.50;;
55589;SDS011;41452;42.780;23.116;2022-08-11T14:36:36;3.97;;;2.88;;
55589;SDS011;41452;42.780;23.116;2022-08-11T14:39:06;4.90;;;2.70;;
55589;SDS011;41452;42.780;23.116;2022-08-11T14:41:35;4.07;;;2.85;;
55589;SDS011;41452;42.780;23.116;2022-08-11T14:44:20;4.50;;;2.88;;
55589;SDS011;41452;42.780;23.116;2022-08-11T14:49:34;3.95;;;3.00;;
55589;SDS011;41452;42.780;23.116;2022-08-11T14:52:02;5.28;;;2.65;;
55589;SDS011;41452;42.780;23.116;2022-08-11T14:54:31;4.70;;;2.95;;
55589;SDS011;41452;42.780;23.116;2022-08-11T14:57:16;4.22;;;3.00;;
55589;SDS011;41452;42.780;23.116;2022-08-11T14:59:43;7.63;;;3.10;;
55589;SDS011;41452;42.780;23.116;2022-08-11T15:02:12;4.35;;;2.75;;
55589;SDS011;41452;42.780;23.116;2022-08-11T15:04:57;4.07;;;3.17;;
55589;SDS011;41452;42.780;23.116;2022-08-11T15:07:25;5.82;;;3.40;;
55589;SDS011;41452;42.780;23.116;2022-08-11T15:09:58;4.72;;;2.92;;
55589;SDS011;41452;42.780;23.116;2022-08-11T15:12:25;5.15;;;3.58;;
55589;SDS011;41452;42.780;23.116;2022-08-11T15:14:52;5.15;;;3.13;;
55589;SDS011;41452;42.780;23.116;2022-08-11T15:20:05;3.72;;;2.97;;
55589;SDS011;41452;42.780;23.116;2022-08-11T15:22:52;7.38;;;3.00;;
55589;SDS011;41452;42.780;23.116;2022-08-11T15:28:04;4.55;;;3.30;;
55589;SDS011;41452;42.780;23.116;2022-08-11T15:30:51;5.15;;;2.83;;
55589;SDS011;41452;42.780;23.116;2022-08-11T15:33:38;5.93;;;3.17;;
55589;SDS011;41452;42.780;23.116;2022-08-11T15:36:26;4.78;;;3.15;;
55589;SDS011;41452;42.780;23.116;2022-08-11T15:39:15;5.13;;;3.13;;
55589;SDS011;41452;42.780;23.116;2022-08-11T15:42:06;5.93;;;3.17;;
55589;SDS011;41452;42.780;23.116;2022-08-11T15:44:59;5.03;;;3.10;;
55589;SDS011;41452;42.780;23.116;2022-08-11T15:47:48;5.57;;;3.20;;
55589;SDS011;41452;42.780;23.116;2022-08-11T15:50:21;9.48;;;3.13;;
55589;SDS011;41452;42.780;23.116;2022-08-11T15:53:02;6.22;;;3.13;;
55589;SDS011;41452;42.780;23.116;2022-08-11T15:55:51;5.93;;;3.80;;
55589;SDS011;41452;42.780;23.116;2022-08-11T15:58:18;3.70;;;3.05;;
55589;SDS011;41452;42.780;23.116;2022-08-11T16:01:03;6.20;;;3.85;;
55589;SDS011;41452;42.780;23.116;2022-08-11T16:03:51;4.15;;;2.72;;
55589;SDS011;41452;42.780;23.116;2022-08-11T16:09:22;7.32;;;3.22;;
55589;SDS011;41452;42.780;23.116;2022-08-11T16:11:52;5.90;;;3.17;;
55589;SDS011;41452;42.780;23.116;2022-08-11T16:14:20;7.65;;;3.15;;
55589;SDS011;41452;42.780;23.116;2022-08-11T16:17:08;4.70;;;3.17;;
55589;SDS011;41452;42.780;23.116;2022-08-11T16:19:35;4.68;;;3.33;;
55589;SDS011;41452;42.780;23.116;2022-08-11T16:22:05;3.97;;;2.88;;
55589;SDS011;41452;42.780;23.116;2022-08-11T16:24:37;4.90;;;4.35;;
55589;SDS011;41452;42.780;23.116;2022-08-11T16:27:09;5.35;;;3.08;;
55589;SDS011;41452;42.780;23.116;2022-08-11T16:29:36;5.07;;;3.22;;
55589;SDS011;41452;42.780;23.116;2022-08-11T16:32:07;6.53;;;3.33;;
55589;SDS011;41452;42.780;23.116;2022-08-11T16:34:44;4.63;;;3.17;;
55589;SDS011;41452;42.780;23.116;2022-08-11T16:37:35;6.70;;;3.92;;
55589;SDS011;41452;42.780;23.116;2022-08-11T16:40:19;4.68;;;3.40;;
55589;SDS011;41452;42.780;23.116;2022-08-11T16:42:46;6.28;;;3.55;;
55589;SDS011;41452;42.780;23.116;2022-08-11T16:45:32;5.80;;;2.80;;
55589;SDS011;41452;42.780;23.116;2022-08-11T16:48:18;6.20;;;3.17;;
55589;SDS011;41452;42.780;23.116;2022-08-11T16:50:45;7.85;;;4.03;;
55589;SDS011;41452;42.780;23.116;2022-08-11T16:53:10;7.40;;;3.42;;
55589;SDS011;41452;42.780;23.116;2022-08-11T16:55:36;5.57;;;3.20;;
55589;SDS011;41452;42.780;23.116;2022-08-11T16:58:03;4.97;;;2.92;;
55589;SDS011;41452;42.780;23.116;2022-08-11T17:00:49;5.70;;;3.20;;
55589;SDS011;41452;42.780;23.116;2022-08-11T17:03:15;6.90;;;4.00;;
55589;SDS011;41452;42.780;23.116;2022-08-11T17:06:02;8.77;;;3.55;;
55589;SDS011;41452;42.780;23.116;2022-08-11T17:08:52;213.93;;;48.72;;
55589;SDS011;41452;42.780;23.116;2022-08-11T17:11:48;609.53;;;176.95;;
55589;SDS011;41452;42.780;23.116;2022-08-11T17:14:57;501.60;;;143.10;;
55589;SDS011;41452;42.780;23.116;2022-08-11T17:17:35;514.55;;;147.25;;
55589;SDS011;41452;42.780;23.116;2022-08-11T17:20:04;131.82;;;36.53;;
55589;SDS011;41452;42.780;23.116;2022-08-11T17:22:35;30.38;;;10.30;;
55589;SDS011;41452;42.780;23.116;2022-08-11T17:25:21;15.25;;;6.10;;
55589;SDS011;41452;42.780;23.116;2022-08-11T17:27:49;659.08;;;170.27;;
55589;SDS011;41452;42.780;23.116;2022-08-11T17:30:16;354.88;;;81.40;;
55589;SDS011;41452;42.780;23.116;2022-08-11T17:32:44;75.50;;;20.70;;
55589;SDS011;41452;42.780;23.116;2022-08-11T17:35:33;647.30;;;153.90;;
55589;SDS011;41452;42.780;23.116;2022-08-11T17:38:09;937.95;;;273.00;;
55589;SDS011;41452;42.780;23.116;2022-08-11T17:40:39;426.63;;;97.25;;
55589;SDS011;41452;42.780;23.116;2022-08-11T17:43:28;117.18;;;28.33;;
55589;SDS011;41452;42.780;23.116;2022-08-11T17:46:14;31.27;;;10.38;;
55589;SDS011;41452;42.780;23.116;2022-08-11T17:48:59;308.88;;;55.28;;
55589;SDS011;41452;42.780;23.116;2022-08-11T17:51:25;56.35;;;13.80;;
55589;SDS011;41452;42.780;23.116;2022-08-11T17:54:10;74.00;;;13.15;;
55589;SDS011;41452;42.780;23.116;2022-08-11T17:56:55;167.63;;;28.73;;
55589;SDS011;41452;42.780;23.116;2022-08-11T17:59:41;219.43;;;40.35;;
55589;SDS011;41452;42.780;23.116;2022-08-11T18:02:24;71.15;;;16.48;;
55589;SDS011;41452;42.780;23.116;2022-08-11T18:07:39;7.18;;;3.63;;
55589;SDS011;41452;42.780;23.116;2022-08-11T18:10:25;7.65;;;3.72;;
55589;SDS011;41452;42.780;23.116;2022-08-11T18:13:12;7.35;;;4.13;;
55589;SDS011;41452;42.780;23.116;2022-08-11T18:15:57;6.57;;;3.92;;
55589;SDS011;41452;42.780;23.116;2022-08-11T18:18:40;5.17;;;3.20;;
55589;SDS011;41452;42.780;23.116;2022-08-11T18:21:24;5.68;;;4.18;;
55589;SDS011;41452;42.780;23.116;2022-08-11T18:24:12;4.95;;;2.95;;
55589;SDS011;41452;42.780;23.116;2022-08-11T18:26:59;3.80;;;2.95;;
55589;SDS011;41452;42.780;23.116;2022-08-11T18:29:47;5.40;;;3.58;;
55589;SDS011;41452;42.780;23.116;2022-08-11T18:32:33;5.78;;;3.30;;
55589;SDS011;41452;42.780;23.116;2022-08-11T18:35:19;4.57;;;3.47;;
55589;SDS011;41452;42.780;23.116;2022-08-11T18:38:05;10.07;;;3.67;;
55589;SDS011;41452;42.780;23.116;2022-08-11T18:40:53;3.70;;;2.90;;
55589;SDS011;41452;42.780;23.116;2022-08-11T18:43:40;5.50;;;3.58;;
55589;SDS011;41452;42.780;23.116;2022-08-11T18:46:26;5.25;;;3.45;;
55589;SDS011;41452;42.780;23.116;2022-08-11T18:49:16;12.77;;;4.00;;
55589;SDS011;41452;42.780;23.116;2022-08-11T18:52:03;9.38;;;3.70;;
55589;SDS011;41452;42.780;23.116;2022-08-11T18:54:48;6.82;;;3.10;;
55589;SDS011;41452;42.780;23.116;2022-08-11T18:57:37;5.28;;;3.30;;
55589;SDS011;41452;42.780;23.116;2022-08-11T19:00:25;5.22;;;3.80;;
55589;SDS011;41452;42.780;23.116;2022-08-11T19:03:10;5.30;;;3.75;;
55589;SDS011;41452;42.780;23.116;2022-08-11T19:05:57;4.55;;;3.55;;
55589;SDS011;41452;42.780;23.116;2022-08-11T19:08:46;5.03;;;3.35;;
55589;SDS011;41452;42.780;23.116;2022-08-11T19:11:34;4.55;;;3.35;;
55589;SDS011;41452;42.780;23.116;2022-08-11T19:14:19;6.07;;;4.03;;
55589;SDS011;41452;42.780;23.116;2022-08-11T19:17:04;6.20;;;3.70;;
55589;SDS011;41452;42.780;23.116;2022-08-11T19:19:49;6.30;;;3.53;;
55589;SDS011;41452;42.780;23.116;2022-08-11T19:22:35;4.57;;;3.40;;
55589;SDS011;41452;42.780;23.116;2022-08-11T19:25:19;3.95;;;3.00;;
55589;SDS011;41452;42.780;23.116;2022-08-11T19:28:05;8.82;;;3.50;;
55589;SDS011;41452;42.780;23.116;2022-08-11T19:30:50;4.10;;;3.13;;
55589;SDS011;41452;42.780;23.116;2022-08-11T19:33:36;6.35;;;3.33;;
55589;SDS011;41452;42.780;23.116;2022-08-11T19:36:23;5.57;;;3.25;;
55589;SDS011;41452;42.780;23.116;2022-08-11T19:39:09;4.93;;;3.70;;
55589;SDS011;41452;42.780;23.116;2022-08-11T19:41:55;6.25;;;3.63;;
55589;SDS011;41452;42.780;23.116;2022-08-11T19:44:41;5.47;;;3.03;;
55589;SDS011;41452;42.780;23.116;2022-08-11T19:47:26;7.85;;;3.15;;
55589;SDS011;41452;42.780;23.116;2022-08-11T19:50:12;10.43;;;3.55;;
55589;SDS011;41452;42.780;23.116;2022-08-11T19:52:58;7.32;;;3.60;;
55589;SDS011;41452;42.780;23.116;2022-08-11T19:55:43;10.90;;;3.30;;
55589;SDS011;41452;42.780;23.116;2022-08-11T19:58:30;10.05;;;3.80;;
55589;SDS011;41452;42.780;23.116;2022-08-11T20:01:14;5.90;;;3.58;;